sensor_id;sensor_type;location;lat;lon;timestamp;temperature;humidity
5848;DHT22;8756;49.29324300;8.70599800;2023-02-02T00:00:47;6.50;99.90
5848;DHT22;8756;49.29324300;8.70599800;2023-02-02T00:03:13;6.50;99.90
5848;DHT22;8756;49.29324300;8.70599800;2023-02-02T00:05:47;6.40;99.90
5848;DHT22;8756;49.29324300;8.70599800;2023-02-02T00:08:15;6.50;99.90
5848;DHT22;8756;49.29324300;8.70599800;2023-02-02T00:10:42;6.50;99.90
5848;DHT22;8756;49.29324300;8.70599800;2023-02-02T00:13:08;6.50;99.90
5848;DHT22;8756;49.29324300;8.70599800;2023-02-02T00:15:34;6.50;99.90
5848;DHT22;8756;49.29324300;8.70599800;2023-02-02T00:17:59;6.50;99.90
5848;DHT22;8756;49.29324300;8.70599800;2023-02-02T00:20:25;6.50;99.90
5848;DHT22;8756;49.29324300;8.70599800;2023-02-02T00:22:51;6.50;99.90
5848;DHT22;8756;49.29324300;8.70599800;2023-02-02T00:25:16;6.50;99.90
5848;DHT22;8756;49.29324300;8.70599800;2023-02-02T00:27:42;6.50;99.90
5848;DHT22;8756;49.29324300;8.70599800;2023-02-02T00:30:09;6.50;99.90
5848;DHT22;8756;49.29324300;8.70599800;2023-02-02T00:32:35;6.50;99.90
5848;DHT22;8756;49.29324300;8.70599800;2023-02-02T00:35:00;6.50;99.90
5848;DHT22;8756;49.29324300;8.70599800;2023-02-02T00:37:26;6.50;99.90
5848;DHT22;8756;49.29324300;8.70599800;2023-02-02T00:39:51;6.50;99.90
5848;DHT22;8756;49.29324300;8.70599800;2023-02-02T00:42:17;6.40;99.90
5848;DHT22;8756;49.29324300;8.70599800;2023-02-02T00:44:43;6.40;99.90
5848;DHT22;8756;49.29324300;8.70599800;2023-02-02T00:47:27;6.40;99.90
5848;DHT22;8756;49.29324300;8.70599800;2023-02-02T00:49:52;6.40;99.90
5848;DHT22;8756;49.29324300;8.70599800;2023-02-02T00:52:18;6.40;99.90
5848;DHT22;8756;49.29324300;8.70599800;2023-02-02T00:54:44;6.40;99.90
5848;DHT22;8756;49.29324300;8.70599800;2023-02-02T00:57:13;6.40;99.90
5848;DHT22;8756;49.29324300;8.70599800;2023-02-02T00:59:40;6.30;99.90
5848;DHT22;8756;49.29324300;8.70599800;2023-02-02T01:02:07;6.30;99.90
5848;DHT22;8756;49.29324300;8.70599800;2023-02-02T01:04:34;6.30;99.90
5848;DHT22;8756;49.29324300;8.70599800;2023-02-02T01:06:59;6.30;99.90
5848;DHT22;8756;49.29324300;8.70599800;2023-02-02T01:09:25;6.30;99.90
5848;DHT22;8756;49.29324300;8.70599800;2023-02-02T01:11:51;6.30;99.90
5848;DHT22;8756;49.29324300;8.70599800;2023-02-02T01:14:16;6.30;99.90
5848;DHT22;8756;49.29324300;8.70599800;2023-02-02T01:16:42;6.30;99.90
5848;DHT22;8756;49.29324300;8.70599800;2023-02-02T01:19:07;6.30;99.90
5848;DHT22;8756;49.29324300;8.70599800;2023-02-02T01:21:33;6.30;99.90
5848;DHT22;8756;49.29324300;8.70599800;2023-02-02T01:23:59;6.30;99.90
5848;DHT22;8756;49.29324300;8.70599800;2023-02-02T01:26:24;6.30;99.90
5848;DHT22;8756;49.29324300;8.70599800;2023-02-02T01:28:50;6.30;99.90
5848;DHT22;8756;49.29324300;8.70599800;2023-02-02T01:31:17;6.30;99.90
5848;DHT22;8756;49.29324300;8.70599800;2023-02-02T01:33:45;6.30;99.90
5848;DHT22;8756;49.29324300;8.70599800;2023-02-02T01:36:14;6.30;99.90
5848;DHT22;8756;49.29324300;8.70599800;2023-02-02T01:38:41;6.30;99.90
5848;DHT22;8756;49.29324300;8.70599800;2023-02-02T01:41:08;6.30;99.90
5848;DHT22;8756;49.29324300;8.70599800;2023-02-02T01:46:10;6.30;99.90
5848;DHT22;8756;49.29324300;8.70599800;2023-02-02T01:48:37;6.30;99.90
5848;DHT22;8756;49.29324300;8.70599800;2023-02-02T01:51:07;6.30;99.90
5848;DHT22;8756;49.29324300;8.70599800;2023-02-02T01:53:35;6.30;99.90
5848;DHT22;8756;49.29324300;8.70599800;2023-02-02T01:56:04;6.30;99.90
5848;DHT22;8756;49.29324300;8.70599800;2023-02-02T01:58:35;6.30;99.90
5848;DHT22;8756;49.29324300;8.70599800;2023-02-02T02:01:03;6.30;99.90
5848;DHT22;8756;49.29324300;8.70599800;2023-02-02T02:03:31;6.30;99.90
5848;DHT22;8756;49.29324300;8.70599800;2023-02-02T02:06:09;6.30;99.90
5848;DHT22;8756;49.29324300;8.70599800;2023-02-02T02:08:38;6.30;99.90
5848;DHT22;8756;49.29324300;8.70599800;2023-02-02T02:11:05;6.30;99.90
5848;DHT22;8756;49.29324300;8.70599800;2023-02-02T02:13:34;6.20;99.90
5848;DHT22;8756;49.29324300;8.70599800;2023-02-02T02:16:26;6.30;99.90
5848;DHT22;8756;49.29324300;8.70599800;2023-02-02T02:21:56;6.30;99.90
5848;DHT22;8756;49.29324300;8.70599800;2023-02-02T02:32:25;6.30;99.90
5848;DHT22;8756;49.29324300;8.70599800;2023-02-02T02:35:12;6.30;99.90
5848;DHT22;8756;49.29324300;8.70599800;2023-02-02T02:38:08;6.40;99.90
5848;DHT22;8756;49.29324300;8.70599800;2023-02-02T02:40:41;6.40;99.90
5848;DHT22;8756;49.29324300;8.70599800;2023-02-02T02:46:06;6.40;99.90
5848;DHT22;8756;49.29324300;8.70599800;2023-02-02T02:48:31;6.40;99.90
5848;DHT22;8756;49.29324300;8.70599800;2023-02-02T02:54:29;6.40;99.90
5848;DHT22;8756;49.29324300;8.70599800;2023-02-02T03:02:56;6.40;99.90
5848;DHT22;8756;49.29324300;8.70599800;2023-02-02T03:08:45;6.40;99.90
5848;DHT22;8756;49.29324300;8.70599800;2023-02-02T03:11:20;6.40;99.90
5848;DHT22;8756;49.29324300;8.70599800;2023-02-02T03:13:46;6.40;99.90
5848;DHT22;8756;49.29324300;8.70599800;2023-02-02T03:16:14;6.40;99.90
5848;DHT22;8756;49.29324300;8.70599800;2023-02-02T03:18:41;6.40;99.90
5848;DHT22;8756;49.29324300;8.70599800;2023-02-02T03:21:06;6.40;99.90
5848;DHT22;8756;49.29324300;8.70599800;2023-02-02T03:23:32;6.40;99.90
5848;DHT22;8756;49.29324300;8.70599800;2023-02-02T03:25:58;6.50;99.90
5848;DHT22;8756;49.29324300;8.70599800;2023-02-02T03:28:24;6.50;99.90
5848;DHT22;8756;49.29324300;8.70599800;2023-02-02T03:30:50;6.50;99.90
5848;DHT22;8756;49.29324300;8.70599800;2023-02-02T03:33:16;6.50;99.90
5848;DHT22;8756;49.29324300;8.70599800;2023-02-02T03:35:43;6.50;99.90
5848;DHT22;8756;49.29324300;8.70599800;2023-02-02T03:38:09;6.50;99.90
5848;DHT22;8756;49.29324300;8.70599800;2023-02-02T03:40:35;6.50;99.90
5848;DHT22;8756;49.29324300;8.70599800;2023-02-02T03:43:00;6.50;99.90
5848;DHT22;8756;49.29324300;8.70599800;2023-02-02T03:45:27;6.50;99.90
5848;DHT22;8756;49.29324300;8.70599800;2023-02-02T03:47:53;6.50;99.90
5848;DHT22;8756;49.29324300;8.70599800;2023-02-02T03:50:18;6.50;99.90
5848;DHT22;8756;49.29324300;8.70599800;2023-02-02T03:52:44;6.50;99.90
5848;DHT22;8756;49.29324300;8.70599800;2023-02-02T03:55:10;6.50;99.90
5848;DHT22;8756;49.29324300;8.70599800;2023-02-02T03:57:35;6.50;99.90
5848;DHT22;8756;49.29324300;8.70599800;2023-02-02T04:00:02;6.50;99.90
5848;DHT22;8756;49.29324300;8.70599800;2023-02-02T04:02:28;6.50;99.90
5848;DHT22;8756;49.29324300;8.70599800;2023-02-02T04:04:53;6.50;99.90
5848;DHT22;8756;49.29324300;8.70599800;2023-02-02T04:07:19;6.50;99.90
5848;DHT22;8756;49.29324300;8.70599800;2023-02-02T04:09:45;6.50;99.90
5848;DHT22;8756;49.29324300;8.70599800;2023-02-02T04:12:10;6.60;99.90
5848;DHT22;8756;49.29324300;8.70599800;2023-02-02T04:14:36;6.50;99.90
5848;DHT22;8756;49.29324300;8.70599800;2023-02-02T04:17:01;6.50;99.90
5848;DHT22;8756;49.29324300;8.70599800;2023-02-02T04:19:27;6.50;99.90
5848;DHT22;8756;49.29324300;8.70599800;2023-02-02T04:21:52;6.60;99.90
5848;DHT22;8756;49.29324300;8.70599800;2023-02-02T04:24:18;6.50;99.90
5848;DHT22;8756;49.29324300;8.70599800;2023-02-02T04:26:44;6.50;99.90
5848;DHT22;8756;49.29324300;8.70599800;2023-02-02T04:29:09;6.60;99.90
5848;DHT22;8756;49.29324300;8.70599800;2023-02-02T04:31:35;6.60;99.90
5848;DHT22;8756;49.29324300;8.70599800;2023-02-02T04:34:01;6.60;99.90
5848;DHT22;8756;49.29324300;8.70599800;2023-02-02T04:36:27;6.60;99.90
5848;DHT22;8756;49.29324300;8.70599800;2023-02-02T04:38:53;6.60;99.90
5848;DHT22;8756;49.29324300;8.70599800;2023-02-02T04:41:20;6.60;99.90
5848;DHT22;8756;49.29324300;8.70599800;2023-02-02T04:43:47;6.60;99.90
5848;DHT22;8756;49.29324300;8.70599800;2023-02-02T04:46:13;6.60;99.90
5848;DHT22;8756;49.29324300;8.70599800;2023-02-02T04:48:39;6.50;99.90
5848;DHT22;8756;49.29324300;8.70599800;2023-02-02T04:51:10;6.50;99.90
5848;DHT22;8756;49.29324300;8.70599800;2023-02-02T04:53:37;6.50;99.90
5848;DHT22;8756;49.29324300;8.70599800;2023-02-02T04:56:08;6.50;99.90
5848;DHT22;8756;49.29324300;8.70599800;2023-02-02T04:58:38;6.50;99.90
5848;DHT22;8756;49.29324300;8.70599800;2023-02-02T05:01:09;6.50;99.90
5848;DHT22;8756;49.29324300;8.70599800;2023-02-02T05:03:42;6.50;99.90
5848;DHT22;8756;49.29324300;8.70599800;2023-02-02T05:06:08;6.50;99.90
5848;DHT22;8756;49.29324300;8.70599800;2023-02-02T05:08:34;6.50;99.90
5848;DHT22;8756;49.29324300;8.70599800;2023-02-02T05:11:13;6.50;99.90
5848;DHT22;8756;49.29324300;8.70599800;2023-02-02T05:13:51;6.50;99.90
5848;DHT22;8756;49.29324300;8.70599800;2023-02-02T05:16:18;6.50;99.90
5848;DHT22;8756;49.29324300;8.70599800;2023-02-02T05:18:48;6.50;99.90
5848;DHT22;8756;49.29324300;8.70599800;2023-02-02T05:21:15;6.50;99.90
5848;DHT22;8756;49.29324300;8.70599800;2023-02-02T05:23:40;6.50;99.90
5848;DHT22;8756;49.29324300;8.70599800;2023-02-02T05:26:06;6.50;99.90
5848;DHT22;8756;49.29324300;8.70599800;2023-02-02T05:28:31;6.50;99.90
5848;DHT22;8756;49.29324300;8.70599800;2023-02-02T05:31:04;6.50;99.90
5848;DHT22;8756;49.29324300;8.70599800;2023-02-02T05:33:30;6.50;99.90
5848;DHT22;8756;49.29324300;8.70599800;2023-02-02T05:35:55;6.50;99.90
5848;DHT22;8756;49.29324300;8.70599800;2023-02-02T05:38:21;6.50;99.90
5848;DHT22;8756;49.29324300;8.70599800;2023-02-02T05:40:48;6.50;99.90
5848;DHT22;8756;49.29324300;8.70599800;2023-02-02T05:43:13;6.50;99.90
5848;DHT22;8756;49.29324300;8.70599800;2023-02-02T05:45:39;6.40;99.90
5848;DHT22;8756;49.29324300;8.70599800;2023-02-02T05:48:05;6.40;99.90
5848;DHT22;8756;49.29324300;8.70599800;2023-02-02T05:50:30;6.40;99.90
5848;DHT22;8756;49.29324300;8.70599800;2023-02-02T05:52:57;6.40;99.90
5848;DHT22;8756;49.29324300;8.70599800;2023-02-02T05:55:23;6.40;99.90
5848;DHT22;8756;49.29324300;8.70599800;2023-02-02T05:57:49;6.40;99.90
5848;DHT22;8756;49.29324300;8.70599800;2023-02-02T06:00:14;6.40;99.90
5848;DHT22;8756;49.29324300;8.70599800;2023-02-02T06:02:41;6.40;99.90
5848;DHT22;8756;49.29324300;8.70599800;2023-02-02T06:05:06;6.40;99.90
5848;DHT22;8756;49.29324300;8.70599800;2023-02-02T06:07:32;6.40;99.90
5848;DHT22;8756;49.29324300;8.70599800;2023-02-02T06:09:58;6.40;99.90
5848;DHT22;8756;49.29324300;8.70599800;2023-02-02T06:12:23;6.50;99.90
5848;DHT22;8756;49.29324300;8.70599800;2023-02-02T06:14:49;6.50;99.90
5848;DHT22;8756;49.29324300;8.70599800;2023-02-02T06:17:15;6.50;99.90
5848;DHT22;8756;49.29324300;8.70599800;2023-02-02T06:19:40;6.40;99.90
5848;DHT22;8756;49.29324300;8.70599800;2023-02-02T06:22:06;6.40;99.90
5848;DHT22;8756;49.29324300;8.70599800;2023-02-02T06:24:31;6.40;99.90
5848;DHT22;8756;49.29324300;8.70599800;2023-02-02T06:26:57;6.40;99.90
5848;DHT22;8756;49.29324300;8.70599800;2023-02-02T06:29:23;6.40;99.90
5848;DHT22;8756;49.29324300;8.70599800;2023-02-02T06:31:48;6.40;99.90
5848;DHT22;8756;49.29324300;8.70599800;2023-02-02T06:34:14;6.40;99.90
5848;DHT22;8756;49.29324300;8.70599800;2023-02-02T06:36:40;6.50;99.90
5848;DHT22;8756;49.29324300;8.70599800;2023-02-02T06:39:06;6.40;99.90
5848;DHT22;8756;49.29324300;8.70599800;2023-02-02T06:41:35;6.40;99.90
5848;DHT22;8756;49.29324300;8.70599800;2023-02-02T06:44:01;6.40;99.90
5848;DHT22;8756;49.29324300;8.70599800;2023-02-02T06:46:27;6.40;99.90
5848;DHT22;8756;49.29324300;8.70599800;2023-02-02T06:48:52;6.50;99.90
5848;DHT22;8756;49.29324300;8.70599800;2023-02-02T06:51:18;6.40;99.90
5848;DHT22;8756;49.29324300;8.70599800;2023-02-02T06:53:46;6.40;99.90
5848;DHT22;8756;49.29324300;8.70599800;2023-02-02T06:56:13;6.50;99.90
5848;DHT22;8756;49.29324300;8.70599800;2023-02-02T06:58:39;6.50;99.90
5848;DHT22;8756;49.29324300;8.70599800;2023-02-02T07:01:10;6.50;99.90
5848;DHT22;8756;49.29324300;8.70599800;2023-02-02T07:03:37;6.50;99.90
5848;DHT22;8756;49.29324300;8.70599800;2023-02-02T07:06:13;6.50;99.90
5848;DHT22;8756;49.29324300;8.70599800;2023-02-02T07:08:40;6.50;99.90
5848;DHT22;8756;49.29324300;8.70599800;2023-02-02T07:11:07;6.50;99.90
5848;DHT22;8756;49.29324300;8.70599800;2023-02-02T07:13:33;6.50;99.90
5848;DHT22;8756;49.29324300;8.70599800;2023-02-02T07:15:59;6.50;99.90
5848;DHT22;8756;49.29324300;8.70599800;2023-02-02T07:18:24;6.50;99.90
5848;DHT22;8756;49.29324300;8.70599800;2023-02-02T07:20:50;6.50;99.90
5848;DHT22;8756;49.29324300;8.70599800;2023-02-02T07:23:16;6.50;99.90
5848;DHT22;8756;49.29324300;8.70599800;2023-02-02T07:25:41;6.50;99.90
5848;DHT22;8756;49.29324300;8.70599800;2023-02-02T07:28:07;6.50;99.90
5848;DHT22;8756;49.29324300;8.70599800;2023-02-02T07:30:36;6.50;99.90
5848;DHT22;8756;49.29324300;8.70599800;2023-02-02T07:33:02;6.50;99.90
5848;DHT22;8756;49.29324300;8.70599800;2023-02-02T07:35:27;6.50;99.90
5848;DHT22;8756;49.29324300;8.70599800;2023-02-02T07:37:54;6.50;99.90
5848;DHT22;8756;49.29324300;8.70599800;2023-02-02T07:40:20;6.50;99.90
5848;DHT22;8756;49.29324300;8.70599800;2023-02-02T07:42:47;6.50;99.90
5848;DHT22;8756;49.29324300;8.70599800;2023-02-02T07:45:14;6.50;99.90
5848;DHT22;8756;49.29324300;8.70599800;2023-02-02T07:47:40;6.50;99.90
5848;DHT22;8756;49.29324300;8.70599800;2023-02-02T07:50:06;6.50;99.90
5848;DHT22;8756;49.29324300;8.70599800;2023-02-02T07:52:32;6.50;99.90
5848;DHT22;8756;49.29324300;8.70599800;2023-02-02T07:54:57;6.50;99.90
5848;DHT22;8756;49.29324300;8.70599800;2023-02-02T07:57:23;6.50;99.90
5848;DHT22;8756;49.29324300;8.70599800;2023-02-02T07:59:49;6.50;99.90
5848;DHT22;8756;49.29324300;8.70599800;2023-02-02T08:02:15;6.50;99.90
5848;DHT22;8756;49.29324300;8.70599800;2023-02-02T08:04:41;6.50;99.90
5848;DHT22;8756;49.29324300;8.70599800;2023-02-02T08:07:07;6.50;99.90
5848;DHT22;8756;49.29324300;8.70599800;2023-02-02T08:09:32;6.50;99.90
5848;DHT22;8756;49.29324300;8.70599800;2023-02-02T08:11:58;6.50;99.90
5848;DHT22;8756;49.29324300;8.70599800;2023-02-02T08:14:26;6.60;99.90
5848;DHT22;8756;49.29324300;8.70599800;2023-02-02T08:16:52;6.50;99.90
5848;DHT22;8756;49.29324300;8.70599800;2023-02-02T08:19:17;6.50;99.90
5848;DHT22;8756;49.29324300;8.70599800;2023-02-02T08:21:43;6.50;99.90
5848;DHT22;8756;49.29324300;8.70599800;2023-02-02T08:24:09;6.50;99.90
5848;DHT22;8756;49.29324300;8.70599800;2023-02-02T08:26:34;6.50;99.90
5848;DHT22;8756;49.29324300;8.70599800;2023-02-02T08:29:03;6.60;99.90
5848;DHT22;8756;49.29324300;8.70599800;2023-02-02T08:31:36;6.60;99.90
5848;DHT22;8756;49.29324300;8.70599800;2023-02-02T08:34:03;6.60;99.90
5848;DHT22;8756;49.29324300;8.70599800;2023-02-02T08:36:29;6.70;99.90
5848;DHT22;8756;49.29324300;8.70599800;2023-02-02T08:38:59;6.70;99.90
5848;DHT22;8756;49.29324300;8.70599800;2023-02-02T08:41:26;6.70;99.90
5848;DHT22;8756;49.29324300;8.70599800;2023-02-02T08:43:51;6.70;99.90
5848;DHT22;8756;49.29324300;8.70599800;2023-02-02T08:46:18;6.70;99.90
5848;DHT22;8756;49.29324300;8.70599800;2023-02-02T08:48:44;6.70;99.90
5848;DHT22;8756;49.29324300;8.70599800;2023-02-02T08:51:12;6.80;99.90
5848;DHT22;8756;49.29324300;8.70599800;2023-02-02T08:53:40;6.80;99.90
5848;DHT22;8756;49.29324300;8.70599800;2023-02-02T08:56:12;6.80;99.90
5848;DHT22;8756;49.29324300;8.70599800;2023-02-02T08:58:39;6.80;99.90
5848;DHT22;8756;49.29324300;8.70599800;2023-02-02T09:01:14;6.80;99.90
5848;DHT22;8756;49.29324300;8.70599800;2023-02-02T09:03:41;6.90;99.90
5848;DHT22;8756;49.29324300;8.70599800;2023-02-02T09:06:32;6.90;99.90
5848;DHT22;8756;49.29324300;8.70599800;2023-02-02T09:08:59;6.90;99.90
5848;DHT22;8756;49.29324300;8.70599800;2023-02-02T09:11:25;7.00;99.90
5848;DHT22;8756;49.29324300;8.70599800;2023-02-02T09:13:56;7.00;99.90
5848;DHT22;8756;49.29324300;8.70599800;2023-02-02T09:16:24;7.00;99.90
5848;DHT22;8756;49.29324300;8.70599800;2023-02-02T09:18:51;7.10;99.90
5848;DHT22;8756;49.29324300;8.70599800;2023-02-02T09:21:17;7.10;99.90
5848;DHT22;8756;49.29324300;8.70599800;2023-02-02T09:23:44;7.20;99.90
5848;DHT22;8756;49.29324300;8.70599800;2023-02-02T09:28:59;7.20;99.90
5848;DHT22;8756;49.29324300;8.70599800;2023-02-02T09:31:28;7.20;99.90
5848;DHT22;8756;49.29324300;8.70599800;2023-02-02T09:34:06;7.30;99.90
5848;DHT22;8756;49.29324300;8.70599800;2023-02-02T09:36:34;7.30;99.90
5848;DHT22;8756;49.29324300;8.70599800;2023-02-02T09:39:00;7.30;99.90
5848;DHT22;8756;49.29324300;8.70599800;2023-02-02T09:44:12;7.30;99.90
5848;DHT22;8756;49.29324300;8.70599800;2023-02-02T09:50:15;7.30;99.90
5848;DHT22;8756;49.29324300;8.70599800;2023-02-02T09:55:34;7.40;99.90
5848;DHT22;8756;49.29324300;8.70599800;2023-02-02T09:58:19;7.40;99.90
5848;DHT22;8756;49.29324300;8.70599800;2023-02-02T10:01:03;7.40;99.90
5848;DHT22;8756;49.29324300;8.70599800;2023-02-02T10:03:36;7.40;99.90
5848;DHT22;8756;49.29324300;8.70599800;2023-02-02T10:21:28;7.60;99.90
5848;DHT22;8756;49.29324300;8.70599800;2023-02-02T10:24:06;7.60;99.90
5848;DHT22;8756;49.29324300;8.70599800;2023-02-02T10:26:58;7.60;99.90
5848;DHT22;8756;49.29324300;8.70599800;2023-02-02T10:29:49;7.60;99.90
5848;DHT22;8756;49.29324300;8.70599800;2023-02-02T10:32:34;7.60;99.90
5848;DHT22;8756;49.29324300;8.70599800;2023-02-02T10:35:14;7.60;99.90
5848;DHT22;8756;49.29324300;8.70599800;2023-02-02T10:41:05;7.70;99.90
5848;DHT22;8756;49.29324300;8.70599800;2023-02-02T10:44:01;7.60;99.90
5848;DHT22;8756;49.29324300;8.70599800;2023-02-02T10:46:38;7.60;99.90
5848;DHT22;8756;49.29324300;8.70599800;2023-02-02T10:51:31;7.60;99.90
5848;DHT22;8756;49.29324300;8.70599800;2023-02-02T10:53:59;7.60;99.90
5848;DHT22;8756;49.29324300;8.70599800;2023-02-02T10:56:40;7.60;99.90
5848;DHT22;8756;49.29324300;8.70599800;2023-02-02T10:59:28;7.60;99.90
5848;DHT22;8756;49.29324300;8.70599800;2023-02-02T11:01:56;7.60;99.90
5848;DHT22;8756;49.29324300;8.70599800;2023-02-02T11:04:23;7.60;99.90
5848;DHT22;8756;49.29324300;8.70599800;2023-02-02T11:07:09;7.60;99.90
5848;DHT22;8756;49.29324300;8.70599800;2023-02-02T11:09:41;7.60;99.90
5848;DHT22;8756;49.29324300;8.70599800;2023-02-02T11:12:27;7.50;99.90
5848;DHT22;8756;49.29324300;8.70599800;2023-02-02T11:15:02;7.60;99.90
5848;DHT22;8756;49.29324300;8.70599800;2023-02-02T11:17:31;7.60;99.90
5848;DHT22;8756;49.29324300;8.70599800;2023-02-02T11:19:59;7.50;99.90
5848;DHT22;8756;49.29324300;8.70599800;2023-02-02T11:22:32;7.50;99.90
5848;DHT22;8756;49.29324300;8.70599800;2023-02-02T11:25:08;7.50;99.90
5848;DHT22;8756;49.29324300;8.70599800;2023-02-02T11:27:48;7.50;99.90
5848;DHT22;8756;49.29324300;8.70599800;2023-02-02T11:30:31;7.50;99.90
5848;DHT22;8756;49.29324300;8.70599800;2023-02-02T11:32:59;7.50;99.90
5848;DHT22;8756;49.29324300;8.70599800;2023-02-02T11:35:26;7.50;99.90
5848;DHT22;8756;49.29324300;8.70599800;2023-02-02T11:38:15;7.50;99.90
5848;DHT22;8756;49.29324300;8.70599800;2023-02-02T11:40:51;7.50;99.90
5848;DHT22;8756;49.29324300;8.70599800;2023-02-02T11:43:39;7.50;99.90
5848;DHT22;8756;49.29324300;8.70599800;2023-02-02T11:46:19;7.50;99.90
5848;DHT22;8756;49.29324300;8.70599800;2023-02-02T11:48:56;7.50;99.90
5848;DHT22;8756;49.29324300;8.70599800;2023-02-02T11:51:28;7.50;99.90
5848;DHT22;8756;49.29324300;8.70599800;2023-02-02T11:54:08;7.50;99.90
5848;DHT22;8756;49.29324300;8.70599800;2023-02-02T11:56:41;7.50;99.90
5848;DHT22;8756;49.29324300;8.70599800;2023-02-02T11:59:37;7.50;99.90
5848;DHT22;8756;49.29324300;8.70599800;2023-02-02T12:04:43;7.50;99.90
5848;DHT22;8756;49.29324300;8.70599800;2023-02-02T12:07:36;7.60;99.90
5848;DHT22;8756;49.29324300;8.70599800;2023-02-02T12:10:24;7.60;99.90
5848;DHT22;8756;49.29324300;8.70599800;2023-02-02T12:19:17;7.60;99.90
5848;DHT22;8756;49.29324300;8.70599800;2023-02-02T12:24:55;7.70;99.90
5848;DHT22;8756;49.29324300;8.70599800;2023-02-02T12:27:46;7.70;99.90
5848;DHT22;8756;49.29324300;8.70599800;2023-02-02T12:33:45;7.70;99.90
5848;DHT22;8756;49.29324300;8.70599800;2023-02-02T12:36:36;7.70;99.90
5848;DHT22;8756;49.29324300;8.70599800;2023-02-02T12:48:02;7.80;99.90
5848;DHT22;8756;49.29324300;8.70599800;2023-02-02T12:56:43;7.90;99.90
5848;DHT22;8756;49.29324300;8.70599800;2023-02-02T13:02:22;7.90;99.90
5848;DHT22;8756;49.29324300;8.70599800;2023-02-02T13:07:43;7.90;99.90
5848;DHT22;8756;49.29324300;8.70599800;2023-02-02T13:10:32;7.90;99.90
5848;DHT22;8756;49.29324300;8.70599800;2023-02-02T13:15:43;8.00;99.90
5848;DHT22;8756;49.29324300;8.70599800;2023-02-02T13:18:38;8.00;99.90
5848;DHT22;8756;49.29324300;8.70599800;2023-02-02T13:21:15;8.00;99.90
5848;DHT22;8756;49.29324300;8.70599800;2023-02-02T13:23:52;8.10;99.90
5848;DHT22;8756;49.29324300;8.70599800;2023-02-02T13:26:30;8.10;99.90
5848;DHT22;8756;49.29324300;8.70599800;2023-02-02T13:32:26;8.10;99.90
5848;DHT22;8756;49.29324300;8.70599800;2023-02-02T13:35:05;8.10;99.90
5848;DHT22;8756;49.29324300;8.70599800;2023-02-02T13:37:48;8.10;99.90
5848;DHT22;8756;49.29324300;8.70599800;2023-02-02T13:40:33;8.10;99.90
5848;DHT22;8756;49.29324300;8.70599800;2023-02-02T13:45:56;8.10;99.90
5848;DHT22;8756;49.29324300;8.70599800;2023-02-02T13:48:31;8.10;99.90
5848;DHT22;8756;49.29324300;8.70599800;2023-02-02T13:57:38;8.10;99.90
5848;DHT22;8756;49.29324300;8.70599800;2023-02-02T14:03:02;8.10;99.90
5848;DHT22;8756;49.29324300;8.70599800;2023-02-02T14:05:41;8.10;99.90
5848;DHT22;8756;49.29324300;8.70599800;2023-02-02T14:13:41;8.20;99.90
5848;DHT22;8756;49.29324300;8.70599800;2023-02-02T14:18:56;8.10;99.90
5848;DHT22;8756;49.29324300;8.70599800;2023-02-02T14:29:34;8.10;99.90
5848;DHT22;8756;49.29324300;8.70599800;2023-02-02T14:40:44;8.10;99.90
5848;DHT22;8756;49.29324300;8.70599800;2023-02-02T14:43:27;8.10;99.90
5848;DHT22;8756;49.29324300;8.70599800;2023-02-02T14:48:46;8.10;99.90
5848;DHT22;8756;49.29324300;8.70599800;2023-02-02T14:54:04;8.10;99.90
5848;DHT22;8756;49.29324300;8.70599800;2023-02-02T15:02:39;8.00;99.90
5848;DHT22;8756;49.29324300;8.70599800;2023-02-02T15:08:12;8.00;99.90
5848;DHT22;8756;49.29324300;8.70599800;2023-02-02T15:13:16;8.00;99.90
5848;DHT22;8756;49.29324300;8.70599800;2023-02-02T15:15:46;7.90;99.90
5848;DHT22;8756;49.29324300;8.70599800;2023-02-02T15:18:24;7.90;99.90
5848;DHT22;8756;49.29324300;8.70599800;2023-02-02T15:20:58;7.90;99.90
5848;DHT22;8756;49.29324300;8.70599800;2023-02-02T15:23:37;7.90;99.90
5848;DHT22;8756;49.29324300;8.70599800;2023-02-02T15:28:56;7.90;99.90
5848;DHT22;8756;49.29324300;8.70599800;2023-02-02T15:31:30;7.90;99.90
5848;DHT22;8756;49.29324300;8.70599800;2023-02-02T15:34:25;7.90;99.90
5848;DHT22;8756;49.29324300;8.70599800;2023-02-02T15:36:58;7.90;99.90
5848;DHT22;8756;49.29324300;8.70599800;2023-02-02T15:39:32;7.90;99.90
5848;DHT22;8756;49.29324300;8.70599800;2023-02-02T15:45:03;7.90;99.90
5848;DHT22;8756;49.29324300;8.70599800;2023-02-02T15:47:35;7.80;99.90
5848;DHT22;8756;49.29324300;8.70599800;2023-02-02T15:50:03;7.80;99.90
5848;DHT22;8756;49.29324300;8.70599800;2023-02-02T15:52:47;7.80;99.90
5848;DHT22;8756;49.29324300;8.70599800;2023-02-02T15:55:22;7.80;99.90
5848;DHT22;8756;49.29324300;8.70599800;2023-02-02T15:57:56;7.80;99.90
5848;DHT22;8756;49.29324300;8.70599800;2023-02-02T16:03:05;7.80;99.90
5848;DHT22;8756;49.29324300;8.70599800;2023-02-02T16:05:39;7.90;99.90
5848;DHT22;8756;49.29324300;8.70599800;2023-02-02T16:08:31;7.80;99.90
5848;DHT22;8756;49.29324300;8.70599800;2023-02-02T16:11:31;7.80;99.90
5848;DHT22;8756;49.29324300;8.70599800;2023-02-02T16:13:59;7.90;99.90
5848;DHT22;8756;49.29324300;8.70599800;2023-02-02T16:16:31;7.80;99.90
5848;DHT22;8756;49.29324300;8.70599800;2023-02-02T16:21:41;7.80;99.90
5848;DHT22;8756;49.29324300;8.70599800;2023-02-02T16:26:59;7.80;99.90
5848;DHT22;8756;49.29324300;8.70599800;2023-02-02T16:29:27;7.80;99.90
5848;DHT22;8756;49.29324300;8.70599800;2023-02-02T16:31:54;7.80;99.90
5848;DHT22;8756;49.29324300;8.70599800;2023-02-02T16:37:06;7.80;99.90
5848;DHT22;8756;49.29324300;8.70599800;2023-02-02T16:39:39;7.80;99.90
5848;DHT22;8756;49.29324300;8.70599800;2023-02-02T16:42:09;7.80;99.90
5848;DHT22;8756;49.29324300;8.70599800;2023-02-02T16:44:41;7.80;99.90
5848;DHT22;8756;49.29324300;8.70599800;2023-02-02T16:50:17;7.80;99.90
5848;DHT22;8756;49.29324300;8.70599800;2023-02-02T16:52:56;7.80;99.90
5848;DHT22;8756;49.29324300;8.70599800;2023-02-02T16:55:23;7.80;99.90
5848;DHT22;8756;49.29324300;8.70599800;2023-02-02T16:57:51;7.80;99.90
5848;DHT22;8756;49.29324300;8.70599800;2023-02-02T17:00:28;7.80;99.90
5848;DHT22;8756;49.29324300;8.70599800;2023-02-02T17:03:02;7.70;99.90
5848;DHT22;8756;49.29324300;8.70599800;2023-02-02T17:05:44;7.70;99.90
5848;DHT22;8756;49.29324300;8.70599800;2023-02-02T17:08:13;7.70;99.90
5848;DHT22;8756;49.29324300;8.70599800;2023-02-02T17:10:42;7.70;99.90
5848;DHT22;8756;49.29324300;8.70599800;2023-02-02T17:15:58;7.70;99.90